Time;durP1;ratioP1;P1;durP2;ratioP2;P2;SDS_P1;SDS_P2;PMS_P1;PMS_P2;Temp;Humidity;BMP_temperature;BMP_pressure;BME280_temperature;BME280_humidity;BME280_pressure;Samples;Min_cycle;Max_cycle;Signal;HPM_P1;HPM_P2
2022/01/21 00:01:26;;;;;;;15.15;7.53;;;;;;;1.03;78.73;94817.84;5072478;28;20044;-52
2022/01/21 00:03:54;;;;;;;16.83;9.07;;;;;;;1.00;78.64;94818.16;5065458;28;20040;-49
2022/01/21 00:06:21;;;;;;;30.60;10.27;;;;;;;1.05;78.67;94809.97;5066049;28;20068;-50
2022/01/21 00:08:52;;;;;;;13.10;7.13;;;;;;;1.07;78.66;94815.72;5066033;28;20102;-51
2022/01/21 00:11:22;;;;;;;23.35;10.00;;;;;;;1.05;78.70;94817.66;5064783;28;20060;-48
2022/01/21 00:13:49;;;;;;;19.83;8.30;;;;;;;1.13;77.78;94817.59;5067142;28;20571;-50
2022/01/21 00:16:19;;;;;;;13.80;7.53;;;;;;;1.20;77.03;94823.63;5065133;28;20036;-48
2022/01/21 00:18:55;;;;;;;24.98;8.38;;;;;;;1.27;76.34;94829.66;5065859;28;20410;-49
2022/01/21 00:32:25;;;;;;;4.85;1.52;;;;;;;3.32;68.23;94823.03;5063635;28;20048;-49
2022/01/21 00:34:52;;;;;;;4.55;1.38;;;;;;;3.57;68.13;94852.56;5067954;28;20523;-50
2022/01/21 00:37:18;;;;;;;3.85;1.70;;;;;;;3.70;67.30;94845.91;5066730;28;20056;-49
2022/01/21 00:39:52;;;;;;;3.30;1.70;;;;;;;3.81;67.40;94847.97;5063861;28;20509;-50
2022/01/21 00:44:51;;;;;;;2.88;1.80;;;;;;;3.88;69.22;94848.81;5063911;28;20044;-51
2022/01/21 00:47:18;;;;;;;2.75;1.25;;;;;;;3.81;71.97;94842.81;5064509;28;20049;-48
2022/01/21 00:49:46;;;;;;;4.90;2.05;;;;;;;3.71;73.65;94832.03;5064190;28;20050;-48
2022/01/21 00:52:13;;;;;;;2.20;1.52;;;;;;;3.65;74.56;94833.56;5062870;28;20044;-50
2022/01/21 00:54:40;;;;;;;3.10;1.65;;;;;;;3.64;75.12;94837.94;5070389;28;20062;-49
2022/01/21 00:57:08;;;;;;;2.90;1.80;;;;;;;3.58;75.60;94849.00;5064113;28;20514;-48
2022/01/21 00:59:36;;;;;;;2.17;1.45;;;;;;;3.58;75.92;94849.00;5064855;28;20040;-49
2022/01/21 01:02:04;;;;;;;2.88;1.50;;;;;;;3.57;76.81;94852.56;5070545;28;20066;-50
2022/01/21 01:04:32;;;;;;;4.10;2.50;;;;;;;3.57;77.84;94857.69;5062702;28;20502;-49
2022/01/21 01:07:01;;;;;;;2.72;1.75;;;;;;;3.49;79.42;94868.13;5064314;28;20475;-51
2022/01/21 01:09:28;;;;;;;2.92;1.13;;;;;;;3.37;84.24;94867.06;5069433;28;20051;-51
2022/01/21 01:12:26;;;;;;;4.65;2.28;;;;;;;3.32;85.08;94874.53;5065085;28;20047;-49
2022/01/21 01:20:13;;;;;;;3.88;2.10;;;;;;;3.00;94.37;94871.44;5064605;28;20040;-52
2022/01/21 01:23:03;;;;;;;5.63;2.65;;;;;;;2.91;97.32;94869.97;5064884;28;20048;-49
2022/01/21 01:28:15;;;;;;;6.63;2.50;;;;;;;2.78;100.00;94858.56;5062212;28;20041;-51
2022/01/21 01:30:42;;;;;;;5.95;2.55;;;;;;;2.73;100.00;94853.16;5061560;28;20434;-48
2022/01/21 01:33:12;;;;;;;5.22;2.85;;;;;;;2.69;100.00;94849.34;5096245;27;20139;-51
2022/01/21 01:35:39;;;;;;;4.53;2.47;;;;;;;2.57;100.00;94848.22;5074032;28;20481;-48
2022/01/21 01:41:00;;;;;;;2.95;1.98;;;;;;;2.41;100.00;94850.03;5063812;28;20040;-48
2022/01/21 01:51:32;;;;;;;9.15;3.20;;;;;;;2.26;100.00;94833.81;5063574;28;20541;-51
2022/01/21 01:54:09;;;;;;;4.53;2.67;;;;;;;2.30;100.00;94829.91;5063472;28;20060;-51
2022/01/21 01:56:41;;;;;;;5.28;3.13;;;;;;;2.26;100.00;94823.53;5063403;28;20041;-50
2022/01/21 01:59:08;;;;;;;6.72;3.63;;;;;;;2.25;100.00;94824.50;5062269;28;20041;-50
2022/01/21 02:01:35;;;;;;;6.72;3.38;;;;;;;2.21;100.00;94820.72;5062533;28;20083;-49
2022/01/21 02:04:03;;;;;;;5.78;1.83;;;;;;;2.15;100.00;94806.81;5066146;28;20561;-48
2022/01/21 02:06:30;;;;;;;4.80;2.63;;;;;;;2.16;100.00;94812.72;5067101;28;20037;-48
2022/01/21 02:08:58;;;;;;;5.18;2.83;;;;;;;2.14;100.00;94822.41;5063020;28;20426;-50
2022/01/21 02:11:25;;;;;;;7.00;3.28;;;;;;;2.12;100.00;94825.13;5063169;28;20498;-48
2022/01/21 02:13:58;;;;;;;5.07;2.80;;;;;;;2.14;100.00;94836.03;5062822;28;20056;-48
2022/01/21 02:21:43;;;;;;;7.28;2.95;;;;;;;2.02;100.00;94833.13;5063104;28;20119;-48
2022/01/21 02:24:16;;;;;;;7.72;2.40;;;;;;;2.02;100.00;94835.69;5063656;28;20044;-50
2022/01/21 02:26:45;;;;;;;4.47;2.30;;;;;;;2.05;100.00;94832.78;5062639;28;20094;-48
2022/01/21 02:29:25;;;;;;;5.55;2.80;;;;;;;2.00;100.00;94827.38;5062225;28;20046;-48
2022/01/21 02:31:55;;;;;;;8.00;3.13;;;;;;;1.96;100.00;94828.69;5062768;28;20098;-47
2022/01/21 02:34:21;;;;;;;8.52;5.55;;;;;;;1.89;100.00;94827.78;5063448;28;20041;-48
2022/01/21 02:36:49;;;;;;;6.60;3.42;;;;;;;1.91;100.00;94836.94;5065801;28;20052;-47
2022/01/21 02:39:16;;;;;;;5.88;3.60;;;;;;;1.94;100.00;94840.13;5062653;28;20132;-52
2022/01/21 02:41:43;;;;;;;9.80;3.40;;;;;;;1.74;100.00;94842.41;5061945;28;20041;-50
2022/01/21 02:44:15;;;;;;;5.95;2.75;;;;;;;1.69;100.00;94841.19;5067481;28;20047;-53
2022/01/21 02:46:45;;;;;;;4.72;2.53;;;;;;;1.68;100.00;94839.56;5060747;28;20105;-52
2022/01/21 02:49:14;;;;;;;5.50;3.08;;;;;;;1.67;100.00;94844.88;5060637;28;20048;-48
2022/01/21 02:51:41;;;;;;;7.47;2.67;;;;;;;1.53;100.00;94825.91;5065649;28;20529;-47
2022/01/21 02:54:08;;;;;;;4.82;3.10;;;;;;;1.54;100.00;94840.34;5065336;28;20467;-47
2022/01/21 02:56:37;;;;;;;5.80;2.88;;;;;;;1.44;100.00;94850.88;5061340;28;20036;-48
2022/01/21 02:59:06;;;;;;;5.90;3.63;;;;;;;1.38;100.00;94850.75;5062094;28;20036;-48
2022/01/21 03:01:35;;;;;;;7.03;3.03;;;;;;;1.37;100.00;94849.97;5066234;28;20041;-47
2022/01/21 03:04:05;;;;;;;5.00;2.80;;;;;;;1.21;100.00;94856.03;5061760;28;20044;-47
2022/01/21 03:06:33;;;;;;;5.72;3.97;;;;;;;1.09;100.00;94847.13;5061277;28;20517;-47
2022/01/21 03:09:04;;;;;;;6.53;3.42;;;;;;;1.06;100.00;94844.91;5061297;28;20529;-47
2022/01/21 03:11:31;;;;;;;7.85;3.60;;;;;;;1.07;100.00;94843.94;5062416;28;20477;-49
2022/01/21 03:13:58;;;;;;;8.93;4.05;;;;;;;1.12;100.00;94844.22;5061119;28;20464;-49
2022/01/21 03:16:26;;;;;;;7.10;3.60;;;;;;;1.17;100.00;94844.50;5061666;28;20147;-47
2022/01/21 03:18:54;;;;;;;7.70;4.95;;;;;;;1.29;100.00;94848.25;5064244;28;20109;-48
2022/01/21 03:21:22;;;;;;;10.70;5.60;;;;;;;1.30;100.00;94844.72;5061237;28;20445;-49
2022/01/21 03:23:51;;;;;;;11.90;5.25;;;;;;;1.40;100.00;94848.81;5062590;28;20044;-50
2022/01/21 03:26:22;;;;;;;10.38;5.65;;;;;;;1.47;100.00;94844.56;5060941;28;20097;-48
2022/01/21 03:28:57;;;;;;;5.90;3.80;;;;;;;1.52;100.00;94852.56;5062210;28;20052;-48
2022/01/21 03:31:29;;;;;;;8.52;3.30;;;;;;;1.57;100.00;94854.59;5059342;28;20056;-47
2022/01/21 03:34:00;;;;;;;6.72;3.63;;;;;;;1.51;100.00;94858.66;5066511;28;20573;-47
2022/01/21 03:36:31;;;;;;;6.20;2.70;;;;;;;1.51;100.00;94867.16;5063495;28;20048;-48
2022/01/21 03:38:58;;;;;;;4.43;2.35;;;;;;;1.53;100.00;94861.84;5063903;28;20060;-48
2022/01/21 03:41:26;;;;;;;4.25;2.55;;;;;;;1.52;100.00;94862.81;5059339;28;20036;-48
2022/01/21 03:43:53;;;;;;;6.30;3.45;;;;;;;1.49;100.00;94868.31;5061742;28;20143;-47
2022/01/21 03:46:20;;;;;;;6.25;3.65;;;;;;;1.54;100.00;94871.16;5061299;28;20699;-47
2022/01/21 03:48:48;;;;;;;10.82;4.40;;;;;;;1.38;100.00;94863.59;5067402;28;20449;-47
2022/01/21 03:51:19;;;;;;;8.00;3.72;;;;;;;1.29;100.00;94863.63;5060122;28;20051;-52
2022/01/21 03:53:47;;;;;;;13.02;6.40;;;;;;;1.25;100.00;94867.53;5062668;28;20082;-48
2022/01/21 03:56:15;;;;;;;12.13;6.35;;;;;;;1.26;100.00;94874.28;5061593;28;20564;-47
2022/01/21 03:58:43;;;;;;;11.25;6.25;;;;;;;1.03;100.00;94868.34;5063258;28;20045;-48
2022/01/21 04:01:14;;;;;;;13.73;7.10;;;;;;;0.88;100.00;94871.63;5065481;28;20045;-48
2022/01/21 04:03:41;;;;;;;14.75;6.60;;;;;;;0.77;100.00;94874.56;5062878;28;20045;-47
2022/01/21 04:06:08;;;;;;;10.57;3.72;;;;;;;0.62;100.00;94876.25;5066694;28;20040;-47
2022/01/21 04:08:35;;;;;;;4.18;2.22;;;;;;;0.52;100.00;94882.41;5064163;28;20048;-48
2022/01/21 04:11:04;;;;;;;1.27;0.82;;;;;;;0.30;100.00;94893.38;5060712;28;20043;-47
2022/01/21 04:13:35;;;;;;;4.63;1.38;;;;;;;0.36;100.00;94897.81;5061537;28;20138;-48
2022/01/21 04:16:05;;;;;;;1.15;0.93;;;;;;;0.38;100.00;94895.91;5060988;28;20048;-47
2022/01/21 04:18:33;;;;;;;1.02;0.45;;;;;;;0.12;100.00;94899.50;5060147;28;20055;-47
2022/01/21 04:21:04;;;;;;;9.23;1.75;;;;;;;0.18;100.00;94906.53;5060660;28;20053;-47
2022/01/21 04:23:33;;;;;;;1.27;1.00;;;;;;;0.26;100.00;94907.47;5060954;28;20299;-49
2022/01/21 04:26:01;;;;;;;1.83;0.70;;;;;;;0.31;100.00;94910.34;5064026;28;20055;-49
2022/01/21 04:28:29;;;;;;;4.90;1.48;;;;;;;0.33;100.00;94903.28;5065943;28;20059;-47
2022/01/21 04:30:59;;;;;;;3.22;1.17;;;;;;;0.28;100.00;94911.47;5063607;28;20473;-47
2022/01/21 04:33:33;;;;;;;3.20;1.95;;;;;;;0.36;100.00;94913.19;5066290;28;20536;-47
2022/01/21 04:36:03;;;;;;;3.72;1.25;;;;;;;0.28;100.00;94906.34;5065053;28;20045;-51
2022/01/21 04:38:33;;;;;;;3.33;1.30;;;;;;;0.21;100.00;94919.97;5065007;28;20131;-48
2022/01/21 04:41:22;;;;;;;0.98;0.68;;;;;;;0.21;100.00;94919.97;5073666;28;20521;-48
2022/01/21 04:49:37;;;;;;;0.88;0.52;;;;;;;0.12;100.00;94935.34;5051729;28;20041;-47
2022/01/21 04:52:05;;;;;;;0.90;0.57;;;;;;;0.05;100.00;94931.84;5063899;28;20060;-47
2022/01/21 04:54:53;;;;;;;1.35;1.00;;;;;;;0.02;100.00;94951.84;5064585;28;20036;-48
2022/01/21 04:57:21;;;;;;;1.98;0.80;;;;;;;-0.03;100.00;94954.91;5066532;28;20125;-47
2022/01/21 04:59:48;;;;;;;1.77;0.93;;;;;;;-0.06;100.00;94955.22;5068104;28;20544;-48
2022/01/21 05:02:16;;;;;;;1.92;1.02;;;;;;;-0.06;100.00;94955.22;5062870;28;20044;-49
2022/01/21 05:04:44;;;;;;;3.35;1.48;;;;;;;-0.07;100.00;94957.00;5064016;28;20052;-47
2022/01/21 05:07:14;;;;;;;2.63;1.85;;;;;;;-0.09;100.00;94956.38;5064051;28;20056;-50
2022/01/21 05:09:41;;;;;;;1.75;1.25;;;;;;;-0.13;100.00;94964.50;5063007;28;20044;-48
2022/01/21 05:12:10;;;;;;;3.22;2.00;;;;;;;-0.17;100.00;94979.41;5061627;28;20109;-47
2022/01/21 05:17:12;;;;;;;3.97;1.58;;;;;;;-0.15;100.00;94981.81;5063186;28;20520;-47
2022/01/21 05:19:39;;;;;;;5.03;2.60;;;;;;;-0.15;100.00;94986.94;5063253;28;20044;-47
2022/01/21 05:22:25;;;;;;;2.75;1.52;;;;;;;-0.16;100.00;94987.88;5063275;28;20182;-50
2022/01/21 05:24:52;;;;;;;2.20;1.20;;;;;;;-0.15;100.00;94986.94;5063734;28;20049;-50
2022/01/21 05:27:19;;;;;;;3.13;1.02;;;;;;;-0.24;100.00;94984.34;5062721;28;20049;-48
2022/01/21 05:29:49;;;;;;;4.97;2.55;;;;;;;-0.21;100.00;94998.59;5074052;28;20122;-47
2022/01/21 05:32:36;;;;;;;6.47;2.78;;;;;;;-0.28;100.00;95003.56;5042769;28;20169;-50
2022/01/21 05:35:25;;;;;;;15.13;4.75;;;;;;;-0.38;100.00;95015.69;5064599;28;20063;-49
2022/01/21 05:38:15;;;;;;;10.32;4.35;;;;;;;-0.54;100.00;95008.00;5068646;28;20118;-48
2022/01/21 05:41:04;;;;;;;1.25;0.77;;;;;;;-0.46;100.00;95038.72;5061607;28;20448;-47
2022/01/21 05:43:58;;;;;;;4.40;1.20;;;;;;;-0.47;100.00;95039.69;5061027;28;20729;-47
2022/01/21 05:46:55;;;;;;;8.63;3.75;;;;;;;-0.53;100.00;95041.13;5056179;28;20552;-49
2022/01/21 05:49:43;;;;;;;4.82;1.40;;;;;;;-0.59;100.00;95052.78;5066024;28;20419;-48
2022/01/21 05:52:41;;;;;;;;;;;;;;;-0.65;100.00;95067.94;5062994;28;20040;-47
2022/01/21 05:55:40;;;;;;;1.42;0.73;;;;;;;-0.79;100.00;95066.78;5070336;28;20062;-49
2022/01/21 05:58:36;;;;;;;1.45;0.63;;;;;;;-0.79;100.00;95077.81;5052838;28;20740;-49
2022/01/21 06:01:03;;;;;;;0.22;0.20;;;;;;;-0.84;100.00;95081.78;5063878;28;20056;-47
2022/01/21 06:03:32;;;;;;;4.40;1.15;;;;;;;-0.82;100.00;95092.66;5066213;28;20052;-48
2022/01/21 06:05:59;;;;;;;4.43;1.30;;;;;;;-0.81;100.00;95089.13;5068411;28;20070;-50
2022/01/21 06:08:26;;;;;;;3.00;1.42;;;;;;;-0.85;100.00;95095.53;5068524;28;20044;-47
2022/01/21 06:10:53;;;;;;;1.65;1.45;;;;;;;-0.86;100.00;95101.63;5062833;28;20049;-47
2022/01/21 06:13:20;;;;;;;1.27;0.60;;;;;;;-0.86;100.00;95091.38;5069272;28;20622;-47
2022/01/21 06:15:47;;;;;;;0.60;0.40;;;;;;;-0.98;100.00;95104.41;5061843;28;21871;-47
2022/01/21 06:18:14;;;;;;;2.75;0.88;;;;;;;-0.91;100.00;95119.16;5062634;28;20045;-52
2022/01/21 06:20:42;;;;;;;1.63;1.02;;;;;;;-0.90;100.00;95125.88;5062735;28;20535;-47
2022/01/21 06:23:09;;;;;;;4.53;2.15;;;;;;;-0.90;100.00;95125.88;5061167;28;20056;-47
2022/01/21 06:25:36;;;;;;;2.10;1.40;;;;;;;-1.02;100.00;95133.81;5061231;28;20147;-48
2022/01/21 06:28:03;;;;;;;1.60;0.68;;;;;;;-1.14;100.00;95139.31;5059594;28;20055;-47
2022/01/21 06:30:30;;;;;;;5.40;2.55;;;;;;;-1.19;100.00;95132.09;5060014;28;20072;-48
2022/01/21 06:32:57;;;;;;;6.05;2.60;;;;;;;-1.24;100.00;95150.47;5061533;28;20561;-48
2022/01/21 06:35:24;;;;;;;4.30;2.28;;;;;;;-1.20;100.00;95151.75;5068392;28;20045;-47
2022/01/21 06:37:51;;;;;;;12.88;7.57;;;;;;;-1.20;100.00;95146.63;5063227;28;20445;-51
2022/01/21 06:40:20;;;;;;;14.05;4.97;;;;;;;-1.22;100.00;95156.22;5066567;28;20048;-47
2022/01/21 06:42:48;;;;;;;1.77;1.05;;;;;;;-1.29;100.00;95156.97;5063812;28;20044;-50
2022/01/21 06:45:15;;;;;;;2.80;1.75;;;;;;;-1.33;100.00;95170.97;5067050;28;20044;-48
2022/01/21 06:47:43;;;;;;;10.60;4.43;;;;;;;-1.31;100.00;95158.88;5062401;28;20064;-48
2022/01/21 06:50:10;;;;;;;5.15;2.35;;;;;;;-1.29;100.00;95162.09;5064888;28;20052;-49
2022/01/21 06:52:37;;;;;;;6.55;4.40;;;;;;;-1.25;100.00;95159.06;5064819;28;20123;-48
2022/01/21 06:55:06;;;;;;;3.72;2.42;;;;;;;-1.24;100.00;95154.75;5061289;28;20067;-48
2022/01/21 06:57:37;;;;;;;3.92;1.42;;;;;;;-1.10;100.00;95177.22;5064424;28;20040;-48
2022/01/21 07:00:10;;;;;;;3.08;1.70;;;;;;;-1.13;100.00;95176.69;5069919;28;20040;-48
2022/01/21 07:02:37;;;;;;;3.97;2.60;;;;;;;-1.26;100.00;95166.88;5055227;28;20626;-47
2022/01/21 07:05:05;;;;;;;11.43;1.90;;;;;;;-1.15;100.00;95169.22;5055600;28;20518;-47
2022/01/21 07:07:32;;;;;;;4.35;2.72;;;;;;;-1.16;100.00;95177.81;5061357;28;20112;-48
2022/01/21 07:10:00;;;;;;;2.38;1.10;;;;;;;-1.13;100.00;95174.16;5058917;28;20060;-48
2022/01/21 07:12:27;;;;;;;4.20;1.92;;;;;;;-1.05;100.00;95185.22;5057722;28;20056;-49
2022/01/21 07:14:54;;;;;;;6.47;2.72;;;;;;;-1.01;100.00;95191.66;5061739;28;20513;-47
2022/01/21 07:17:21;;;;;;;3.38;2.00;;;;;;;-0.98;100.00;95203.34;5056939;28;20043;-48
2022/01/21 07:19:52;;;;;;;16.00;4.65;;;;;;;-1.02;100.00;95205.41;5056761;28;20067;-47
2022/01/21 07:22:19;;;;;;;4.00;1.30;;;;;;;-1.01;100.00;95217.25;5056578;28;20052;-51
2022/01/21 07:24:45;;;;;;;4.38;1.67;;;;;;;-1.01;100.00;95222.34;5059136;28;20086;-52
2022/01/21 07:27:13;;;;;;;2.13;1.45;;;;;;;-0.99;100.00;95220.44;5059595;28;20052;-49
2022/01/21 07:29:40;;;;;;;2.45;1.85;;;;;;;-1.01;100.00;95222.34;5065584;28;20518;-52
2022/01/21 07:32:07;;;;;;;5.22;2.30;;;;;;;-1.05;100.00;95236.38;5054306;28;20048;-48
2022/01/21 07:34:34;;;;;;;2.88;2.17;;;;;;;-1.02;100.00;95246.31;5058415;28;20037;-49
2022/01/21 07:37:02;;;;;;;7.38;2.90;;;;;;;-0.98;100.00;95262.94;5057784;28;20041;-49
2022/01/21 07:39:29;;;;;;;6.72;2.58;;;;;;;-0.94;100.00;95247.31;5063569;28;20063;-48
2022/01/21 07:41:56;;;;;;;36.88;12.98;;;;;;;-0.99;100.00;95247.75;5058727;28;20043;-48
2022/01/21 07:44:23;;;;;;;42.65;14.45;;;;;;;-1.03;98.87;95249.78;5063769;28;20163;-49
2022/01/21 07:46:50;;;;;;;20.75;7.97;;;;;;;-1.03;95.56;95252.34;5068507;28;20040;-47
2022/01/21 07:49:17;;;;;;;7.80;4.18;;;;;;;-1.06;95.11;95265.47;5064534;28;20049;-48
2022/01/21 07:51:45;;;;;;;4.18;2.70;;;;;;;-1.19;93.33;95255.63;5059049;28;20097;-48
2022/01/21 07:54:12;;;;;;;17.65;6.72;;;;;;;-1.11;94.07;95270.22;5059161;28;20078;-50
2022/01/21 07:56:39;;;;;;;6.82;4.03;;;;;;;-1.21;93.15;95272.03;5062341;28;20040;-48
2022/01/21 07:59:09;;;;;;;12.38;4.82;;;;;;;-1.19;94.82;95275.25;5062126;28;20052;-49
2022/01/21 08:01:36;;;;;;;9.48;2.47;;;;;;;-1.17;93.20;95269.03;5069134;28;20056;-49
2022/01/21 08:04:04;;;;;;;3.28;1.60;;;;;;;-1.15;92.61;95271.47;5066053;28;20131;-50
2022/01/21 08:06:31;;;;;;;3.90;1.98;;;;;;;-1.17;93.56;95273.34;5065439;28;20597;-48
2022/01/21 08:08:59;;;;;;;11.32;4.50;;;;;;;-1.13;95.24;95290.00;5068976;28;20384;-47
2022/01/21 08:11:26;;;;;;;14.13;4.78;;;;;;;-1.07;94.68;95286.84;5069764;28;20600;-49
2022/01/21 08:13:53;;;;;;;11.75;5.13;;;;;;;-1.00;94.63;95285.31;5060139;28;20684;-48
2022/01/21 08:16:20;;;;;;;10.60;4.43;;;;;;;-1.04;93.18;95280.66;5059481;28;20513;-48
2022/01/21 08:18:48;;;;;;;5.22;2.65;;;;;;;-0.98;92.40;95303.84;5064239;28;20065;-47
2022/01/21 08:21:19;;;;;;;6.25;3.20;;;;;;;-0.99;92.00;95302.25;5066367;28;20051;-48
2022/01/21 08:23:52;;;;;;;34.30;10.57;;;;;;;-0.93;92.97;95284.72;5065709;28;20056;-50
2022/01/21 08:26:24;;;;;;;13.00;7.10;;;;;;;-0.90;93.43;95295.47;5063455;28;20540;-49
2022/01/21 08:28:52;;;;;;;18.42;6.82;;;;;;;-0.89;94.11;95293.69;5065815;28;20040;-48
2022/01/21 08:31:19;;;;;;;19.90;9.25;;;;;;;-0.83;95.66;95300.78;5065664;28;20506;-48
2022/01/21 08:33:46;;;;;;;7.78;3.47;;;;;;;-0.78;98.85;95308.81;5063794;28;20048;-49
2022/01/21 08:36:13;;;;;;;15.05;5.32;;;;;;;-0.73;100.00;95310.94;5065646;28;20055;-53
2022/01/21 08:38:40;;;;;;;26.20;9.90;;;;;;;-0.61;100.00;95309.75;5065773;28;20036;-50
2022/01/21 08:41:07;;;;;;;14.20;7.05;;;;;;;-0.52;100.00;95318.25;5063854;28;20059;-52
2022/01/21 08:43:34;;;;;;;14.65;4.25;;;;;;;-0.42;100.00;95321.53;5062777;28;20119;-47
2022/01/21 08:46:01;;;;;;;10.23;4.80;;;;;;;-0.23;100.00;95321.31;5065503;28;20048;-51
2022/01/21 08:48:28;;;;;;;14.43;6.53;;;;;;;-0.24;100.00;95312.03;5065595;28;20036;-50
2022/01/21 08:50:57;;;;;;;16.85;4.40;;;;;;;-0.20;100.00;95313.34;5065771;28;20129;-48
2022/01/21 08:53:36;;;;;;;11.48;7.03;;;;;;;-0.23;100.00;95293.16;5067161;28;20055;-48
2022/01/21 08:56:06;;;;;;;17.95;7.35;;;;;;;-0.17;100.00;95281.50;5065001;28;20062;-48
2022/01/21 08:58:33;;;;;;;12.13;4.70;;;;;;;-0.02;100.00;95281.72;5069083;28;20513;-47
2022/01/21 09:01:01;;;;;;;15.00;7.20;;;;;;;0.04;100.00;95282.84;5074636;28;20052;-48
2022/01/21 09:03:28;;;;;;;18.00;6.88;;;;;;;0.07;100.00;95293.59;5070373;28;20043;-47
2022/01/21 09:05:55;;;;;;;8.93;4.55;;;;;;;0.06;100.00;95299.69;5063865;28;20056;-48
2022/01/21 09:08:25;;;;;;;8.73;3.40;;;;;;;0.14;100.00;95309.16;5072028;28;20070;-47
2022/01/21 09:10:54;;;;;;;8.88;5.10;;;;;;;0.08;100.00;95310.56;5065498;28;20056;-48
2022/01/21 09:13:23;;;;;;;3.67;2.47;;;;;;;-0.17;100.00;95311.44;5069119;28;20055;-47
2022/01/21 09:15:50;;;;;;;6.57;3.72;;;;;;;-0.18;100.00;95309.81;5075888;28;20048;-47
2022/01/21 09:18:19;;;;;;;3.22;2.25;;;;;;;-0.20;100.00;95308.22;5071193;28;20056;-49
2022/01/21 09:20:47;;;;;;;6.53;3.88;;;;;;;-0.21;100.00;95293.81;5068442;28;20565;-48
2022/01/21 09:23:14;;;;;;;4.20;2.45;;;;;;;-0.29;100.00;95278.41;5069499;28;20055;-51
2022/01/21 09:25:41;;;;;;;32.88;9.13;;;;;;;-0.25;100.00;95269.47;5063048;28;20780;-47
2022/01/21 09:28:08;;;;;;;15.38;5.55;;;;;;;-0.10;100.00;95274.81;5074662;28;20465;-48
2022/01/21 09:30:35;;;;;;;9.70;5.93;;;;;;;0.03;100.00;95276.94;5069699;28;20062;-49
2022/01/21 09:33:02;;;;;;;6.82;4.57;;;;;;;-0.11;100.00;95254.47;5063093;28;21920;-48
2022/01/21 09:35:29;;;;;;;20.80;7.28;;;;;;;0.03;100.00;95258.22;5064875;28;20050;-47
2022/01/21 09:37:56;;;;;;;10.85;6.03;;;;;;;0.20;100.00;95257.31;5057849;28;20481;-49
2022/01/21 09:40:45;;;;;;;13.07;6.75;;;;;;;0.37;100.00;95245.34;5065033;28;20407;-48
2022/01/21 09:43:12;;;;;;;9.57;4.90;;;;;;;0.38;100.00;95255.44;5065178;28;20055;-49
2022/01/21 09:45:40;;;;;;;7.50;5.32;;;;;;;0.28;98.84;95253.97;5063974;28;20044;-47
2022/01/21 09:48:09;;;;;;;7.07;3.38;;;;;;;0.15;98.39;95251.88;5065748;28;20037;-47
2022/01/21 09:50:38;;;;;;;8.60;4.68;;;;;;;0.02;100.00;95254.03;5069265;28;20048;-47
2022/01/21 09:53:06;;;;;;;7.82;4.63;;;;;;;-0.12;100.00;95263.94;5066205;28;20468;-47
2022/01/21 09:55:33;;;;;;;10.52;6.60;;;;;;;-0.28;100.00;95254.41;5066893;28;20044;-48
2022/01/21 09:58:01;;;;;;;11.35;4.95;;;;;;;-0.44;100.00;95259.44;5065388;28;20055;-49
2022/01/21 10:00:28;;;;;;;11.00;6.80;;;;;;;-0.38;100.00;95248.59;5066505;28;20045;-47
2022/01/21 10:03:01;;;;;;;10.82;4.70;;;;;;;-0.43;100.00;95235.47;5062360;28;20060;-47
2022/01/21 10:05:28;;;;;;;10.88;6.22;;;;;;;-0.40;100.00;95245.38;5067600;28;20049;-48
2022/01/21 10:07:58;;;;;;;3.67;2.72;;;;;;;-0.40;100.00;95255.63;5067093;28;20453;-47
2022/01/21 10:10:25;;;;;;;6.22;3.50;;;;;;;-0.34;100.00;95244.78;5062140;28;20049;-48
2022/01/21 10:13:01;;;;;;;10.75;4.35;;;;;;;-0.28;100.00;95241.63;5071158;28;20131;-51
2022/01/21 10:15:29;;;;;;;4.40;2.72;;;;;;;-0.26;100.00;95232.00;5069088;28;20052;-48
2022/01/21 10:18:04;;;;;;;6.32;4.70;;;;;;;-0.20;100.00;95231.41;5069125;28;20447;-46
2022/01/21 10:20:39;;;;;;;7.80;4.18;;;;;;;-0.11;100.00;95221.19;5074919;28;20525;-47
2022/01/21 10:23:09;;;;;;;5.70;3.70;;;;;;;-0.13;99.17;95215.44;5060226;28;20057;-47
2022/01/21 10:25:40;;;;;;;5.60;2.83;;;;;;;-0.08;99.00;95223.44;5060446;28;20513;-48
2022/01/21 10:28:19;;;;;;;6.25;2.70;;;;;;;-0.14;99.32;95214.63;5063639;28;20106;-49
2022/01/21 10:30:48;;;;;;;6.55;3.38;;;;;;;-0.27;98.88;95204.84;5066598;28;20059;-47
2022/01/21 10:33:24;;;;;;;9.48;4.57;;;;;;;-0.30;99.00;95222.25;5054618;28;20060;-50
2022/01/21 10:36:12;;;;;;;8.25;4.07;;;;;;;-0.06;99.57;95211.28;5061004;28;20043;-48
2022/01/21 10:38:49;;;;;;;9.82;4.45;;;;;;;0.01;97.70;95219.94;5065047;28;20079;-47
2022/01/21 10:41:18;;;;;;;8.95;4.35;;;;;;;-0.16;97.94;95200.38;5064438;28;20051;-47
2022/01/21 10:44:03;;;;;;;7.25;3.58;;;;;;;-0.17;98.52;95209.03;5067114;28;20484;-47
2022/01/21 10:46:30;;;;;;;;;;;;;;;0.06;98.13;95215.16;5063637;28;20040;-48
2022/01/21 10:48:59;;;;;;;8.32;5.15;;;;;;;-0.04;97.77;95209.38;5067690;28;20014;-47
2022/01/21 10:51:30;;;;;;;16.05;5.47;;;;;;;0.16;98.41;95213.28;5062140;28;20098;-47
2022/01/21 10:53:59;;;;;;;10.15;5.10;;;;;;;0.21;97.32;95206.88;5064054;28;20873;-48
2022/01/21 10:56:27;;;;;;;4.60;2.88;;;;;;;0.06;96.15;95215.16;5057378;28;20036;-48
2022/01/21 10:58:56;;;;;;;8.45;4.95;;;;;;;0.15;97.30;95209.09;5059868;28;20524;-50
2022/01/21 11:01:27;;;;;;;17.35;7.82;;;;;;;0.21;97.47;95212.00;5058945;28;20045;-50
2022/01/21 11:04:00;;;;;;;7.93;4.45;;;;;;;0.12;96.49;95201.72;5059801;28;20059;-50
2022/01/21 11:06:39;;;;;;;9.25;4.38;;;;;;;0.07;95.73;95195.47;5062744;28;20048;-48
2022/01/21 11:09:35;;;;;;;3.20;2.63;;;;;;;0.01;94.70;95196.13;5057610;28;20052;-49
2022/01/21 11:12:14;;;;;;;5.88;3.22;;;;;;;0.06;94.96;95184.44;5058413;28;20049;-47
2022/01/21 11:14:54;;;;;;;10.50;4.78;;;;;;;0.13;94.84;95177.72;5061909;28;20048;-52
2022/01/21 11:17:21;;;;;;;6.82;3.28;;;;;;;0.08;91.79;95186.84;5055295;28;20052;-47
2022/01/21 11:20:06;;;;;;;7.57;4.05;;;;;;;0.06;91.67;95184.44;5061846;28;20593;-48
2022/01/21 11:22:55;;;;;;;6.93;4.05;;;;;;;0.11;93.14;95182.22;5064770;28;20525;-48
2022/01/21 11:25:56;;;;;;;7.25;3.38;;;;;;;-0.02;91.19;95182.66;5062790;28;22491;-47
2022/01/21 11:28:48;;;;;;;3.83;2.05;;;;;;;0.06;92.17;95171.63;5066968;28;20123;-47
2022/01/21 11:31:21;;;;;;;5.65;2.58;;;;;;;0.16;91.58;95167.19;5066486;28;20052;-47
2022/01/21 11:34:08;;;;;;;5.70;2.80;;;;;;;0.10;91.65;95174.69;5060742;28;20595;-47
2022/01/21 11:36:35;;;;;;;14.10;3.33;;;;;;;0.03;92.19;95174.50;5061315;28;20044;-47
2022/01/21 11:39:02;;;;;;;5.88;3.28;;;;;;;0.19;92.88;95164.28;5059059;28;20056;-47
2022/01/21 11:41:31;;;;;;;12.95;5.50;;;;;;;0.39;91.93;95174.22;5063946;28;20049;-48
2022/01/21 11:44:02;;;;;;;9.48;5.38;;;;;;;0.44;91.64;95171.19;5060616;28;20509;-47
2022/01/21 11:49:01;;;;;;;6.47;3.65;;;;;;;0.34;91.26;95182.41;5060514;28;20042;-52
2022/01/21 11:51:32;;;;;;;7.32;4.10;;;;;;;0.41;91.75;95177.44;5059141;28;20044;-48
2022/01/21 11:54:01;;;;;;;3.55;2.55;;;;;;;0.32;91.26;95170.69;5059590;28;20052;-47
2022/01/21 11:56:31;;;;;;;9.93;5.07;;;;;;;0.34;92.40;95166.22;5058292;28;20037;-49
2022/01/21 11:59:08;;;;;;;4.03;2.45;;;;;;;0.24;90.04;95181.75;5063267;28;20513;-47
2022/01/21 12:01:47;;;;;;;4.70;3.03;;;;;;;0.06;93.75;95174.19;5063423;28;20051;-49
2022/01/21 12:04:36;;;;;;;10.45;3.83;;;;;;;0.22;94.26;95167.47;5061453;28;20541;-50
2022/01/21 12:07:02;;;;;;;5.68;3.67;;;;;;;0.09;93.10;95176.44;5062843;28;20040;-47
2022/01/21 12:10:09;;;;;;;7.43;4.15;;;;;;;0.15;92.69;95170.69;5063606;28;20627;-48
2022/01/21 12:13:03;;;;;;;5.40;3.13;;;;;;;-0.02;93.15;95161.34;5003839;28;20194;-47
2022/01/21 12:20:44;;;;;;;10.07;4.43;;;;;;;-0.18;95.63;95171.56;5065628;28;20044;-47
2022/01/21 12:23:20;;;;;;;9.38;5.97;;;;;;;-0.10;96.00;95169.03;5067916;28;20047;-47
2022/01/21 12:26:08;;;;;;;12.88;5.05;;;;;;;-0.11;96.08;95162.31;5066944;28;20044;-51
2022/01/21 12:28:36;;;;;;;7.47;3.97;;;;;;;-0.08;93.46;95159.44;5065685;28;20533;-51
2022/01/21 12:31:04;;;;;;;14.27;5.07;;;;;;;-0.08;93.30;95154.31;5064624;28;20495;-48
2022/01/21 12:34:11;;;;;;;9.25;4.60;;;;;;;-0.20;93.12;95144.38;5025133;28;20052;-50
2022/01/21 12:36:48;;;;;;;5.85;3.67;;;;;;;-0.24;92.03;95150.75;5058847;28;20079;-49
2022/01/21 12:39:44;;;;;;;4.65;2.75;;;;;;;-0.27;91.23;95147.69;5065427;28;20127;-47
2022/01/21 12:42:35;;;;;;;9.32;3.13;;;;;;;-0.32;92.85;95140.50;5071131;28;20044;-49
2022/01/21 12:45:08;;;;;;;9.75;4.70;;;;;;;-0.27;92.21;95137.44;5065893;28;20139;-48